DSU11 -KSGT
Flight info
| Callsign | DSU11 |
|---|---|
| Flight time | N/A |
| Altitude | |
| Route | |
| Aircraft |
Departure
| Time | N/A |
|---|---|
| Airport | - |
Arrival
| Time | 2026-05-08 02:53 |
|---|---|
| Airport | Stuttgart Municipal Airport / Carl Humphrey Field (KSGT) |
| Time | Latitude | Longitude | Altitude | Speed | Heading |
|---|---|---|---|---|---|
| 2026-05-08 02:12 | 33.82263 | -90.77559 | 2587 ft | 93 kts | 320° |
| 2026-05-08 02:13 | 33.82745 | -90.78052 | 2820 ft | 90 kts | 321° |
| 2026-05-08 02:13 | 33.83192 | -90.78509 | 3050 ft | 78 kts | 320° |
| 2026-05-08 02:13 | 33.83570 | -90.78898 | 3254 ft | 69 kts | 320° |
| 2026-05-08 02:13 | 33.83945 | -90.79277 | 3363 ft | 67 kts | 318° |
| 2026-05-08 02:14 | 33.84314 | -90.79649 | 3438 ft | 74 kts | 319° |
| 2026-05-08 02:14 | 33.84711 | -90.80074 | 3562 ft | 81 kts | 322° |
| 2026-05-08 02:14 | 33.85165 | -90.80489 | 3729 ft | 82 kts | 319° |
| 2026-05-08 02:14 | 33.85637 | -90.80968 | 3842 ft | 96 kts | 319° |
| 2026-05-08 02:15 | 33.86127 | -90.81482 | 4063 ft | 88 kts | 319° |
| 2026-05-08 02:15 | 33.86572 | -90.81943 | 4268 ft | 82 kts | 319° |
| 2026-05-08 02:15 | 33.87011 | -90.82392 | 4466 ft | 86 kts | 319° |
| 2026-05-08 02:15 | 33.87492 | -90.82877 | 4656 ft | 90 kts | 319° |
| 2026-05-08 02:16 | 33.87952 | -90.83348 | 4845 ft | 84 kts | 318° |
| 2026-05-08 02:16 | 33.88381 | -90.83788 | 5006 ft | 78 kts | 318° |
| 2026-05-08 02:16 | 33.88784 | -90.84199 | 5155 ft | 75 kts | 318° |
| 2026-05-08 02:16 | 33.89181 | -90.84603 | 5277 ft | 76 kts | 318° |
| 2026-05-08 02:17 | 33.89614 | -90.85047 | 5430 ft | 92 kts | 318° |
| 2026-05-08 02:17 | 33.90144 | -90.85581 | 5570 ft | 107 kts | 318° |
| 2026-05-08 02:17 | 33.90721 | -90.86166 | 5706 ft | 108 kts | 318° |
| 2026-05-08 02:17 | 33.91250 | -90.86704 | 5845 ft | 99 kts | 318° |
| 2026-05-08 02:18 | 33.91749 | -90.87214 | 5991 ft | 90 kts | 317° |
| 2026-05-08 02:18 | 33.92238 | -90.87712 | 6156 ft | 96 kts | 317° |
| 2026-05-08 02:18 | 33.92733 | -90.88216 | 6288 ft | 88 kts | 317° |
| 2026-05-08 02:18 | 33.93153 | -90.88645 | 6422 ft | 78 kts | 316° |
| 2026-05-08 02:19 | 33.93554 | -90.89058 | 6503 ft | 79 kts | 316° |
| 2026-05-08 02:19 | 33.94005 | -90.89521 | 6514 ft | 90 kts | 316° |
| 2026-05-08 02:19 | 33.94507 | -90.90029 | 6511 ft | 96 kts | 317° |
| 2026-05-08 02:19 | 33.95011 | -90.90539 | 6517 ft | 93 kts | 317° |
| 2026-05-08 02:20 | 33.95504 | -90.91043 | 6521 ft | 97 kts | 318° |
| 2026-05-08 02:20 | 33.96016 | -90.91566 | 6514 ft | 95 kts | 317° |
| 2026-05-08 02:20 | 33.96520 | -90.92079 | 6515 ft | 95 kts | 317° |
| 2026-05-08 02:20 | 33.97016 | -90.92586 | 6523 ft | 103 kts | 318° |
| 2026-05-08 02:21 | 33.97568 | -90.93148 | 6511 ft | 101 kts | 318° |
| 2026-05-08 02:21 | 33.98087 | -90.93677 | 6511 ft | 95 kts | 317° |
| 2026-05-08 02:21 | 33.98598 | -90.94201 | 6525 ft | 102 kts | 318° |
| 2026-05-08 02:21 | 33.99143 | -90.94756 | 6505 ft | 110 kts | 319° |
| 2026-05-08 02:22 | 33.99703 | -90.95328 | 6508 ft | 101 kts | 318° |
| 2026-05-08 02:22 | 34.00218 | -90.95854 | 6506 ft | 96 kts | 317° |
| 2026-05-08 02:22 | 34.00715 | -90.96363 | 6506 ft | 92 kts | 318° |
| 2026-05-08 02:22 | 34.01194 | -90.96853 | 6517 ft | 90 kts | 318° |
| 2026-05-08 02:23 | 34.01682 | -90.97352 | 6512 ft | 91 kts | 317° |
| 2026-05-08 02:23 | 34.02161 | -90.97844 | 6510 ft | 90 kts | 317° |
| 2026-05-08 02:23 | 34.02637 | -90.98331 | 6512 ft | 89 kts | 318° |
| 2026-05-08 02:23 | 34.03096 | -90.98801 | 6503 ft | 89 kts | 317° |
| 2026-05-08 02:24 | 34.03562 | -90.99278 | 6515 ft | 90 kts | 318° |
| 2026-05-08 02:24 | 34.04047 | -90.99775 | 6526 ft | 95 kts | 317° |
| 2026-05-08 02:24 | 34.04564 | -91.00302 | 6530 ft | 99 kts | 318° |
| 2026-05-08 02:24 | 34.05075 | -91.00825 | 6518 ft | 95 kts | 318° |
| 2026-05-08 02:25 | 34.05564 | -91.01326 | 6520 ft | 90 kts | 318° |
| 2026-05-08 02:25 | 34.06065 | -91.01840 | 6529 ft | 99 kts | 318° |
| 2026-05-08 02:25 | 34.06589 | -91.02376 | 6533 ft | 101 kts | 318° |
| 2026-05-08 02:25 | 34.07111 | -91.02909 | 6519 ft | 101 kts | 318° |
| 2026-05-08 02:26 | 34.07645 | -91.03458 | 6529 ft | 103 kts | 318° |
| 2026-05-08 02:26 | 34.08202 | -91.04028 | 6529 ft | 107 kts | 319° |
| 2026-05-08 02:26 | 34.08770 | -91.04608 | 6528 ft | 107 kts | 318° |
| 2026-05-08 02:26 | 34.09335 | -91.05189 | 6532 ft | 109 kts | 318° |
| 2026-05-08 02:27 | 34.09906 | -91.05773 | 6513 ft | 104 kts | 318° |
| 2026-05-08 02:27 | 34.10442 | -91.06324 | 6513 ft | 99 kts | 318° |
| 2026-05-08 02:27 | 34.10958 | -91.06853 | 6513 ft | 96 kts | 318° |
| 2026-05-08 02:27 | 34.11460 | -91.07369 | 6516 ft | 94 kts | 318° |
| 2026-05-08 02:28 | 34.11955 | -91.07877 | 6513 ft | 93 kts | 318° |
| 2026-05-08 02:28 | 34.12444 | -91.08379 | 6513 ft | 92 kts | 318° |
| 2026-05-08 02:28 | 34.12928 | -91.08876 | 6517 ft | 91 kts | 318° |
| 2026-05-08 02:28 | 34.13402 | -91.09363 | 6514 ft | 91 kts | 318° |
| 2026-05-08 02:29 | 34.13882 | -91.09857 | 6526 ft | 91 kts | 317° |
| 2026-05-08 02:29 | 34.14374 | -91.10361 | 6517 ft | 93 kts | 318° |
| 2026-05-08 02:29 | 34.14862 | -91.10863 | 6516 ft | 92 kts | 318° |
| 2026-05-08 02:29 | 34.15347 | -91.11360 | 6517 ft | 91 kts | 318° |
| 2026-05-08 02:30 | 34.15828 | -91.11855 | 6509 ft | 91 kts | 318° |
| 2026-05-08 02:30 | 34.16307 | -91.12347 | 6515 ft | 90 kts | 318° |
| 2026-05-08 02:30 | 34.16780 | -91.12833 | 6515 ft | 90 kts | 318° |
| 2026-05-08 02:30 | 34.17254 | -91.13321 | 6516 ft | 90 kts | 318° |
| 2026-05-08 02:31 | 34.17732 | -91.13811 | 6515 ft | 90 kts | 318° |
| 2026-05-08 02:31 | 34.18208 | -91.14301 | 6516 ft | 90 kts | 318° |
| 2026-05-08 02:31 | 34.18684 | -91.14791 | 6515 ft | 90 kts | 318° |
| 2026-05-08 02:31 | 34.19159 | -91.15279 | 6515 ft | 90 kts | 318° |
| 2026-05-08 02:32 | 34.19635 | -91.15769 | 6515 ft | 90 kts | 318° |
| 2026-05-08 02:32 | 34.20111 | -91.16258 | 6515 ft | 90 kts | 318° |
| 2026-05-08 02:32 | 34.20585 | -91.16746 | 6514 ft | 90 kts | 318° |
| 2026-05-08 02:32 | 34.20895 | -91.17065 | 6517 ft | 90 kts | 318° |
| 2026-05-08 02:33 | 34.21355 | -91.17538 | 6519 ft | 89 kts | 318° |
| 2026-05-08 02:33 | 34.21828 | -91.18026 | 6508 ft | 90 kts | 318° |
| 2026-05-08 02:33 | 34.22334 | -91.18545 | 6526 ft | 102 kts | 319° |
| 2026-05-08 02:33 | 34.22876 | -91.19101 | 6524 ft | 101 kts | 318° |
| 2026-05-08 02:34 | 34.23398 | -91.19640 | 6522 ft | 97 kts | 318° |
| 2026-05-08 02:34 | 34.23903 | -91.20161 | 6524 ft | 95 kts | 318° |
| 2026-05-08 02:34 | 34.24403 | -91.20676 | 6515 ft | 94 kts | 318° |
| 2026-05-08 02:34 | 34.24895 | -91.21183 | 6523 ft | 93 kts | 318° |
| 2026-05-08 02:35 | 34.25383 | -91.21687 | 6519 ft | 92 kts | 318° |
| 2026-05-08 02:35 | 34.25866 | -91.22184 | 6518 ft | 91 kts | 318° |
| 2026-05-08 02:35 | 34.26347 | -91.22680 | 6517 ft | 91 kts | 318° |
| 2026-05-08 02:35 | 34.26823 | -91.23171 | 6516 ft | 90 kts | 318° |
| 2026-05-08 02:36 | 34.27299 | -91.23661 | 6519 ft | 89 kts | 318° |
| 2026-05-08 02:36 | 34.27771 | -91.24149 | 6518 ft | 89 kts | 318° |
| 2026-05-08 02:36 | 34.28241 | -91.24633 | 6518 ft | 89 kts | 318° |
| 2026-05-08 02:36 | 34.28706 | -91.25113 | 6518 ft | 89 kts | 318° |
| 2026-05-08 02:37 | 34.29169 | -91.25591 | 6518 ft | 89 kts | 318° |
| 2026-05-08 02:37 | 34.29637 | -91.26073 | 6515 ft | 88 kts | 318° |
| 2026-05-08 02:37 | 34.30103 | -91.26556 | 6518 ft | 88 kts | 318° |
| 2026-05-08 02:37 | 34.30572 | -91.27039 | 6517 ft | 88 kts | 318° |
| 2026-05-08 02:38 | 34.31036 | -91.27521 | 6522 ft | 97 kts | 318° |
| 2026-05-08 02:38 | 34.31543 | -91.28041 | 6517 ft | 94 kts | 318° |
| 2026-05-08 02:38 | 34.32038 | -91.28552 | 6522 ft | 93 kts | 318° |
| 2026-05-08 02:38 | 34.32523 | -91.29053 | 6520 ft | 91 kts | 318° |
| 2026-05-08 02:39 | 34.33013 | -91.29558 | 6517 ft | 93 kts | 318° |
| 2026-05-08 02:39 | 34.33527 | -91.30090 | 6541 ft | 103 kts | 318° |
| 2026-05-08 02:39 | 34.34106 | -91.30687 | 6535 ft | 112 kts | 319° |
| 2026-05-08 02:39 | 34.34684 | -91.31284 | 6522 ft | 107 kts | 319° |
| 2026-05-08 02:40 | 34.35241 | -91.31858 | 6511 ft | 101 kts | 318° |
| 2026-05-08 02:40 | 34.35764 | -91.32401 | 6520 ft | 97 kts | 319° |
| 2026-05-08 02:40 | 34.36265 | -91.32920 | 6516 ft | 94 kts | 318° |
| 2026-05-08 02:40 | 34.36766 | -91.33438 | 6514 ft | 93 kts | 319° |
| 2026-05-08 02:41 | 34.37263 | -91.33954 | 6531 ft | 105 kts | 319° |
| 2026-05-08 02:41 | 34.37814 | -91.34518 | 6514 ft | 94 kts | 318° |
| 2026-05-08 02:41 | 34.38304 | -91.35026 | 6412 ft | 95 kts | 319° |
| 2026-05-08 02:41 | 34.38807 | -91.35547 | 6266 ft | 94 kts | 319° |
| 2026-05-08 02:42 | 34.39301 | -91.36058 | 6137 ft | 93 kts | 319° |
| 2026-05-08 02:42 | 34.39784 | -91.36558 | 6007 ft | 91 kts | 319° |
| 2026-05-08 02:42 | 34.40259 | -91.37050 | 5878 ft | 90 kts | 319° |
| 2026-05-08 02:42 | 34.40733 | -91.37541 | 5749 ft | 89 kts | 319° |
| 2026-05-08 02:43 | 34.41204 | -91.38029 | 5621 ft | 89 kts | 319° |
| 2026-05-08 02:43 | 34.41675 | -91.38517 | 5494 ft | 89 kts | 319° |
| 2026-05-08 02:43 | 34.42150 | -91.39009 | 5353 ft | 91 kts | 319° |
| 2026-05-08 02:43 | 34.42636 | -91.39513 | 5202 ft | 93 kts | 319° |
| 2026-05-08 02:44 | 34.43141 | -91.40035 | 5067 ft | 96 kts | 318° |
| 2026-05-08 02:44 | 34.43680 | -91.40594 | 4942 ft | 105 kts | 319° |
| 2026-05-08 02:44 | 34.44222 | -91.41154 | 4797 ft | 105 kts | 319° |
| 2026-05-08 02:44 | 34.44741 | -91.41687 | 4601 ft | 92 kts | 318° |
| 2026-05-08 02:45 | 34.45236 | -91.42201 | 4410 ft | 95 kts | 319° |
| 2026-05-08 02:45 | 34.45709 | -91.42694 | 4226 ft | 86 kts | 319° |
| 2026-05-08 02:45 | 34.46177 | -91.43180 | 4067 ft | 94 kts | 318° |
| 2026-05-08 02:45 | 34.46692 | -91.43713 | 3873 ft | 99 kts | 318° |
| 2026-05-08 02:46 | 34.47182 | -91.44221 | 3739 ft | 88 kts | 318° |
| 2026-05-08 02:46 | 34.47630 | -91.44688 | 3596 ft | 86 kts | 318° |
| 2026-05-08 02:46 | 34.48096 | -91.45175 | 3487 ft | 92 kts | 318° |
| 2026-05-08 02:46 | 34.48601 | -91.45699 | 3371 ft | 98 kts | 318° |
| 2026-05-08 02:47 | 34.49131 | -91.46248 | 3254 ft | 102 kts | 318° |
| 2026-05-08 02:47 | 34.49671 | -91.46809 | 3131 ft | 102 kts | 318° |
| 2026-05-08 02:47 | 34.50210 | -91.47369 | 3002 ft | 100 kts | 318° |
| 2026-05-08 02:47 | 34.50728 | -91.47909 | 2874 ft | 97 kts | 318° |
| 2026-05-08 02:48 | 34.51250 | -91.48451 | 2758 ft | 102 kts | 319° |
| 2026-05-08 02:48 | 34.51791 | -91.49012 | 2618 ft | 101 kts | 319° |
| 2026-05-08 02:48 | 34.52319 | -91.49563 | 2505 ft | 100 kts | 319° |
| 2026-05-08 02:48 | 34.52863 | -91.50128 | 2380 ft | 105 kts | 319° |
| 2026-05-08 02:49 | 34.53422 | -91.50709 | 2263 ft | 109 kts | 319° |
| 2026-05-08 02:49 | 34.53997 | -91.51307 | 2136 ft | 110 kts | 319° |
| 2026-05-08 02:49 | 34.54560 | -91.51893 | 2006 ft | 103 kts | 319° |
| 2026-05-08 02:49 | 34.55107 | -91.52463 | 1882 ft | 106 kts | 319° |
| 2026-05-08 02:50 | 34.55641 | -91.53018 | 1748 ft | 102 kts | 319° |
| 2026-05-08 02:50 | 34.56170 | -91.53570 | 1621 ft | 99 kts | 319° |
| 2026-05-08 02:50 | 34.56723 | -91.54145 | 1519 ft | 107 kts | 319° |
| 2026-05-08 02:50 | 34.57272 | -91.54719 | 1521 ft | 103 kts | 318° |
| 2026-05-08 02:51 | 34.57809 | -91.55280 | 1526 ft | 105 kts | 319° |
| 2026-05-08 02:51 | 34.58400 | -91.55828 | 1505 ft | 107 kts | 328° |
| 2026-05-08 02:51 | 34.59094 | -91.56090 | 1433 ft | 102 kts | 358° |
| 2026-05-08 02:51 | 34.59788 | -91.56091 | 1375 ft | 97 kts | 3° |
| 2026-05-08 02:52 | 34.60443 | -91.56039 | 1155 ft | 92 kts | 7° |
| 2026-05-08 02:52 | 34.61056 | -91.55989 | 1022 ft | 83 kts | 353° |
| 2026-05-08 02:52 | 34.61505 | -91.56345 | 897 ft | 82 kts | 298° |
| 2026-05-08 02:52 | 34.61532 | -91.57016 | 757 ft | 83 kts | 243° |
| 2026-05-08 02:53 | 34.61225 | -91.57588 | 563 ft | 78 kts | 226° |
| 2026-05-08 02:53 | 34.60793 | -91.57852 | 376 ft | 68 kts | 180° |
| 2026-05-08 02:53 | 34.60335 | -91.57854 | 241 ft | 61 kts | 180° |
| 2026-05-08 02:53 | 34.60009 | -91.57871 | 224 ft | 21 kts | 178° |
| 2026-05-08 02:54 | 34.59931 | -91.57847 | 223 ft | 8 kts | 121° |
| 2026-05-08 02:54 | 34.59909 | -91.57792 | 224 ft | 9 kts | 115° |
| 2026-05-08 02:54 | 34.59889 | -91.57731 | 225 ft | 9 kts | 109° |
| 2026-05-08 02:54 | 34.59901 | -91.57693 | 225 ft | 0 kts | 358° |